• Join FlightAware (Why Join?)
  • Login
  • US Flag 
Rudolph Flight #1: Arrived! 
08:44AM EST


 

Airport Tracker/Info


-or-


 

Live Flight TrackerFlight Track Log ✈ N111BF ✈ 25-Sep-2013 ✈ KTKI - KPWG

Flight Track Log - Related Links

Times and Time Zones

All times are in EDT time to prevent confusion due to time zone crossing. See the N111BF flight status page for this flight to view local times or setup timezone preferences in your user account.

Time Position Orientation Groundspeed Altitude Reporting Facility
EDT Latitude Longitude Course Direction KTS MPH feet Rate Location/Type
01:00PM 33.1333 -96.5833 180° South 185 213 2,000  Level Dallas / Fort Worth TRACON
01:01PM 33.0833 -96.6000 196° South 221 254 2,200 1,260 Climbing Dallas / Fort Worth TRACON
01:02PM 33.0167 -96.6000 180° South 196 226 4,500 2,520 Climbing Dallas / Fort Worth TRACON
01:03PM 32.9500 -96.6000 180° South 221 254 7,300 2,580 Climbing Dallas / Fort Worth TRACON
01:04PM 32.8872 -96.6342 205° Southwest 233 268 10,100 2,220 Climbing Fort Worth Center
01:05PM 32.8436 -96.7345 192° South  Level Estimated
01:05PM 32.8269 -96.6667 204° Southwest 244 281 12,100  Level Fort Worth Center
01:06PM 32.7603 -96.7019 204° Southwest 258 297 14,000 1,740 Climbing Fort Worth Center
01:07PM 32.6917 -96.7369 203° Southwest 258 297 15,600 960 Climbing Fort Worth Center
01:08PM 32.6189 -96.7769 205° Southwest 273 314 16,000 180 Climbing Fort Worth Center
01:09PM 32.5397 -96.8169 203° Southwest 300 345 16,000  Level Fort Worth Center
01:10PM 32.4586 -96.8594 204° Southwest 317 365 16,000  Level Fort Worth Center
01:11PM 32.3753 -96.9017 203° Southwest 317 365 16,000  Level Fort Worth Center
01:12PM 32.2939 -96.9439 204° Southwest 317 365 16,000  Level Fort Worth Center
01:13PM 32.2208 -96.9811 203° Southwest 317 365 16,000  Level Fort Worth Center
01:14PM 32.1333 -97.0283 205° Southwest 317 365 16,000 -240 Level Fort Worth Center
01:15PM 32.0500 -97.0728 204° Southwest 317 365 15,600 -1,320 Descending Fort Worth Center
01:16PM 31.9708 -97.1122 203° Southwest 317 365 13,400 -1,920 Descending Fort Worth Center
01:17PM 31.8958 -97.1492 203° Southwest 300 345 11,800 -1,800 Descending Fort Worth Center
01:18PM 31.8206 -97.1908 205° Southwest 294 338 9,500 -2,280 Descending Fort Worth Center
01:19PM 31.7331 -97.2350 203° Southwest 289 333 6,900 -1,980 Descending Fort Worth Center
01:20PM 31.6619 -97.2694 202° Southwest 283 326 5,600 -1,680 Descending Fort Worth Center
01:21PM 31.5911 -97.2889 193° South 269 310 3,600 -1,620 Descending Fort Worth Center
01:22PM 31.5453 -97.3086 200° South 235 270 2,400 4,680 Descending Fort Worth Center
01:23PM 31.5139 -97.3208 198° South 158 182 13,000 -720 Climbing Fort Worth Center
01:24PM 31.4639 -97.3428 201° Southwest 150 173 1,000  Descending Fort Worth Center
01:25PM 31.4219 -97.3597 199° South 150 173 13,000 6,000 Climbing Fort Worth Center
01:26PM 31.3803 -97.3792 202° Southwest 150 173 13,000  Level Fort Worth Center
01:27PM 31.3386 -97.3964 199° South 150 173 13,000  Level Fort Worth Center
01:28PM 31.3303 -97.4011 206° Southwest 150 173 13,000  Level Fort Worth Center